34°C Temp
17°C Dewpoint
36% Humidity
Temperature
14 KM/H
9 MPH
8 KTS
60°
East North
East

Wind Speed
Mostly Scattered
Clouds
Pressure 1009.82 (hPa) - 29.82 (in)
Visibility 6.0 (mi) - 9.7 (km)

Current Conditions
LIRQ
Location 70(km)
Metar :LIRQ 221150Z 06008KT 350V120 9999 SCT060 34/17 Q1010
Mon 22nd July 13:50 pm

Airport
  Metar Aviation API Data Provided by https://www.checkwx.com/ PHP scripts by weather34.com ©2024